createdAt,value
2018-11-28T00:01:45.287Z,31.20
2018-11-28T00:03:54.199Z,31.17
2018-11-28T00:06:03.075Z,29.57
2018-11-28T00:08:12.353Z,27.60
2018-11-28T00:10:20.889Z,29.97
2018-11-28T00:12:28.964Z,31.13
2018-11-28T00:14:37.007Z,26.90
2018-11-28T00:16:44.970Z,30.03
2018-11-28T00:18:53.608Z,30.07
2018-11-28T00:21:01.561Z,30.00
2018-11-28T00:23:09.507Z,26.30
2018-11-28T00:25:18.458Z,33.20
2018-11-28T00:27:26.495Z,28.20
2018-11-28T00:29:34.664Z,29.80
2018-11-28T00:31:42.743Z,32.70
2018-11-28T00:33:51.171Z,33.28
2018-11-28T00:36:00.109Z,27.27
2018-11-28T00:38:08.075Z,32.57
2018-11-28T00:40:20.420Z,26.33
2018-11-28T00:42:31.710Z,26.17
2018-11-28T00:44:39.853Z,33.57
2018-11-28T00:46:48.027Z,33.40
2018-11-28T00:48:55.956Z,33.92
2018-11-28T00:51:04.143Z,33.78
2018-11-28T00:53:12.092Z,36.97
2018-11-28T00:55:20.517Z,36.37
2018-11-28T00:57:28.504Z,28.80
2018-11-28T00:59:36.466Z,28.10
2018-11-28T01:01:44.611Z,31.33
2018-11-28T01:03:52.844Z,36.03
2018-11-28T01:06:01.231Z,24.53
2018-11-28T01:08:10.307Z,32.83
2018-11-28T01:10:20.044Z,31.37
2018-11-28T01:12:28.088Z,34.70
2018-11-28T01:14:36.438Z,36.17
2018-11-28T01:16:44.409Z,37.87
2018-11-28T01:18:52.548Z,32.80
2018-11-28T01:20:58.011Z,26.60
2018-11-28T01:23:05.955Z,33.27
2018-11-28T01:25:15.401Z,27.87
2018-11-28T01:27:23.823Z,32.10
2018-11-28T01:29:31.858Z,33.70
2018-11-28T01:31:39.963Z,31.93
2018-11-28T01:33:48.281Z,31.20
2018-11-28T01:36:05.338Z,31.10
2018-11-28T01:38:13.429Z,33.20
2018-11-28T01:40:25.756Z,31.53
2018-11-28T01:42:33.940Z,33.85
2018-11-28T01:44:41.948Z,25.77
2018-11-28T01:46:50.039Z,32.77
2018-11-28T01:48:57.993Z,34.07
2018-11-28T01:51:06.552Z,28.60
2018-11-28T01:53:14.601Z,35.60
2018-11-28T01:55:24.485Z,32.20
2018-11-28T01:57:32.479Z,31.00
2018-11-28T01:59:50.693Z,31.43
2018-11-28T02:01:56.729Z,33.50
2018-11-28T02:04:04.686Z,33.42
2018-11-28T02:06:12.685Z,39.30
2018-11-28T02:08:20.891Z,34.63
2018-11-28T02:10:29.200Z,29.77
2018-11-28T02:12:37.245Z,42.83
2018-11-28T02:14:45.188Z,31.10
2018-11-28T02:16:53.903Z,33.83
2018-11-28T02:19:01.947Z,34.07
2018-11-28T02:21:07.517Z,32.90
2018-11-28T02:23:15.671Z,45.60
2018-11-28T02:25:23.994Z,54.07
2018-11-28T02:27:32.244Z,51.40
2018-11-28T02:29:40.386Z,56.37
2018-11-28T02:31:50.018Z,40.53
2018-11-28T02:33:57.971Z,37.70
2018-11-28T02:36:06.016Z,28.27
2018-11-28T02:38:14.353Z,28.47
2018-11-28T02:40:24.124Z,33.13
2018-11-28T02:42:32.534Z,32.10
2018-11-28T02:44:40.504Z,35.50
2018-11-28T02:46:48.439Z,29.07
2018-11-28T02:48:56.474Z,33.17
2018-11-28T02:51:04.423Z,30.03
2018-11-28T02:53:12.376Z,30.97
2018-11-28T02:55:21.910Z,27.10
2018-11-28T02:57:29.919Z,23.02
2018-11-28T02:59:37.864Z,23.27
2018-11-28T03:01:46.139Z,26.42
2018-11-28T03:03:54.256Z,35.00
2018-11-28T03:06:02.403Z,30.13
2018-11-28T03:08:10.591Z,37.57
2018-11-28T03:10:28.290Z,34.70
2018-11-28T03:12:36.253Z,23.87
2018-11-28T03:14:44.705Z,29.00
2018-11-28T03:16:52.823Z,28.17
2018-11-28T03:19:01.023Z,33.92
2018-11-28T03:21:10.581Z,32.60
2018-11-28T03:23:18.959Z,30.80
2018-11-28T03:25:27.758Z,27.07
2018-11-28T03:27:35.872Z,30.47
2018-11-28T03:29:43.999Z,26.07
2018-11-28T03:31:51.926Z,18.43
2018-11-28T03:34:00.954Z,20.76
2018-11-28T03:36:09.285Z,25.08
2018-11-28T03:38:17.267Z,35.77
2018-11-28T03:40:25.736Z,31.43
2018-11-28T03:42:33.678Z,30.13
2018-11-28T03:44:41.827Z,27.93
2018-11-28T03:46:50.264Z,23.80
2018-11-28T03:48:58.637Z,26.50
2018-11-28T03:51:06.701Z,26.47
2018-11-28T03:53:14.730Z,30.40
2018-11-28T03:55:22.848Z,25.37
2018-11-28T03:57:30.884Z,30.00
2018-11-28T03:59:38.811Z,26.30
2018-11-28T04:01:47.451Z,25.40
2018-11-28T04:03:55.491Z,26.53
2018-11-28T04:06:03.844Z,32.27
2018-11-28T04:08:12.517Z,34.47
2018-11-28T04:10:20.701Z,31.20
2018-11-28T04:12:28.760Z,25.57
2018-11-28T04:14:36.713Z,28.80
2018-11-28T04:16:44.632Z,29.43
2018-11-28T04:18:52.923Z,26.57
2018-11-28T04:21:01.157Z,25.15
2018-11-28T04:23:09.143Z,27.62
2018-11-28T04:25:14.251Z,26.10
2018-11-28T04:27:22.194Z,28.33
2018-11-28T04:29:30.215Z,32.10
2018-11-28T04:31:38.147Z,24.27
2018-11-28T04:33:46.200Z,28.00
2018-11-28T04:35:54.162Z,28.30
2018-11-28T04:38:02.309Z,29.98
2018-11-28T04:40:23.024Z,24.53
2018-11-28T04:42:31.278Z,29.67
2018-11-28T04:44:39.322Z,25.27
2018-11-28T04:46:47.453Z,34.40
2018-11-28T04:48:55.457Z,32.33
2018-11-28T04:51:03.511Z,26.73
2018-11-28T04:53:11.675Z,25.40
2018-11-28T04:55:21.081Z,33.13
2018-11-28T04:57:29.005Z,22.37
2018-11-28T04:59:37.311Z,22.93
2018-11-28T05:01:48.940Z,27.03
2018-11-28T05:03:59.805Z,21.60
2018-11-28T05:06:08.052Z,29.50
2018-11-28T05:08:16.312Z,26.07
2018-11-28T05:10:29.016Z,26.37
2018-11-28T05:12:37.119Z,28.27
2018-11-28T05:14:45.166Z,25.62
2018-11-28T05:16:53.302Z,26.70
2018-11-28T05:19:02.048Z,28.97
2018-11-28T05:21:10.322Z,34.53
2018-11-28T05:23:18.447Z,24.67
2018-11-28T05:25:23.482Z,30.47
2018-11-28T05:27:32.117Z,25.10
2018-11-28T05:29:40.705Z,25.53
2018-11-28T05:31:48.752Z,24.97
2018-11-28T05:33:57.040Z,25.97
2018-11-28T05:36:05.084Z,23.50
2018-11-28T05:38:19.435Z,29.23
2018-11-28T05:40:29.710Z,28.77
2018-11-28T05:42:37.675Z,25.87
2018-11-28T05:44:45.657Z,24.53
2018-11-28T05:46:54.034Z,22.60
2018-11-28T05:49:02.034Z,25.77
2018-11-28T05:51:10.044Z,27.40
2018-11-28T05:53:18.031Z,28.23
2018-11-28T05:55:26.486Z,24.47
2018-11-28T05:57:34.527Z,27.57
2018-11-28T05:59:43.389Z,27.20
2018-11-28T06:01:51.362Z,28.07
2018-11-28T06:03:59.449Z,26.68
2018-11-28T06:06:07.477Z,26.60
2018-11-28T06:08:15.429Z,26.70
2018-11-28T06:10:23.454Z,23.40
2018-11-28T06:12:31.495Z,29.90
2018-11-28T06:14:39.551Z,19.97
2018-11-28T06:16:47.468Z,27.17
2018-11-28T06:18:55.549Z,26.77
2018-11-28T06:21:03.472Z,22.17
2018-11-28T06:23:11.905Z,22.77
2018-11-28T06:25:20.603Z,25.63
2018-11-28T06:27:28.754Z,28.07
2018-11-28T06:29:36.821Z,29.57
2018-11-28T06:31:44.749Z,26.93
2018-11-28T06:33:53.008Z,27.67
2018-11-28T06:36:01.883Z,22.97
2018-11-28T06:38:09.957Z,27.60
2018-11-28T06:40:23.812Z,23.50
2018-11-28T06:42:30.071Z,26.37
2018-11-28T06:44:38.422Z,26.13
2018-11-28T06:46:46.412Z,30.47
2018-11-28T06:48:54.393Z,32.37
2018-11-28T06:51:02.504Z,28.30
2018-11-28T06:53:10.616Z,21.97
2018-11-28T06:55:27.811Z,22.73
2018-11-28T06:57:36.215Z,20.27
2018-11-28T06:59:44.508Z,23.15
2018-11-28T07:01:53.397Z,27.97
2018-11-28T07:04:03.616Z,26.37
2018-11-28T07:06:11.661Z,24.60
2018-11-28T07:08:20.092Z,22.53
2018-11-28T07:10:28.091Z,29.60
2018-11-28T07:12:36.513Z,27.27
2018-11-28T07:14:44.751Z,22.00
2018-11-28T07:16:52.736Z,24.93
2018-11-28T07:19:12.413Z,26.93
2018-11-28T07:21:20.544Z,20.77
2018-11-28T07:23:28.553Z,21.73
2018-11-28T07:25:36.616Z,28.85
2018-11-28T07:27:45.148Z,24.43
2018-11-28T07:29:51.510Z,29.60
2018-11-28T07:31:59.903Z,30.40
2018-11-28T07:34:08.230Z,27.47
2018-11-28T07:36:16.355Z,25.60
2018-11-28T07:38:24.367Z,26.27
2018-11-28T07:40:32.320Z,27.33
2018-11-28T07:42:40.880Z,26.90
2018-11-28T07:44:48.833Z,23.87
2018-11-28T07:46:56.898Z,24.37
2018-11-28T07:49:07.602Z,29.40
2018-11-28T07:51:14.131Z,20.77
2018-11-28T07:53:22.317Z,32.67
2018-11-28T07:55:30.350Z,23.70
2018-11-28T07:57:38.327Z,23.67
2018-11-28T07:59:46.680Z,22.57
2018-11-28T08:01:54.824Z,25.70
2018-11-28T08:04:03.092Z,20.15
2018-11-28T08:06:11.200Z,22.77
2018-11-28T08:08:19.664Z,23.27
2018-11-28T08:10:27.890Z,25.60
2018-11-28T08:12:36.182Z,21.20
2018-11-28T08:14:45.130Z,24.40
2018-11-28T08:16:53.288Z,24.03
2018-11-28T08:19:01.965Z,20.13
2018-11-28T08:21:10.162Z,22.42
2018-11-28T08:23:18.211Z,25.10
2018-11-28T08:25:27.916Z,23.98
2018-11-28T08:27:36.465Z,27.67
2018-11-28T08:29:45.988Z,19.80
2018-11-28T08:31:54.793Z,24.20
2018-11-28T08:34:02.785Z,24.50
2018-11-28T08:36:10.758Z,29.47
2018-11-28T08:38:18.986Z,20.57
2018-11-28T08:40:30.232Z,21.70
2018-11-28T08:42:38.191Z,21.57
2018-11-28T08:44:46.204Z,25.60
2018-11-28T08:46:54.212Z,19.98
2018-11-28T08:49:03.161Z,24.90
2018-11-28T08:51:11.294Z,25.60
2018-11-28T08:53:19.401Z,22.00
2018-11-28T08:55:27.363Z,25.73
2018-11-28T08:57:35.329Z,21.43
2018-11-28T08:59:43.694Z,24.83
2018-11-28T09:01:54.288Z,24.17
2018-11-28T09:04:02.399Z,23.27
2018-11-28T09:06:10.752Z,19.65
2018-11-28T09:08:19.604Z,19.97
2018-11-28T09:10:28.514Z,26.17
2018-11-28T09:12:36.627Z,25.07
2018-11-28T09:14:44.808Z,24.13
2018-11-28T09:16:52.852Z,21.80
2018-11-28T09:19:00.942Z,34.83
2018-11-28T09:21:09.420Z,21.10
2018-11-28T09:23:17.568Z,23.83
2018-11-28T09:25:25.641Z,25.70
2018-11-28T09:27:33.689Z,21.37
2018-11-28T09:29:41.924Z,25.07
2018-11-28T09:31:50.070Z,22.87
2018-11-28T09:33:58.067Z,21.20
2018-11-28T09:36:07.390Z,21.63
2018-11-28T09:38:15.360Z,22.00
2018-11-28T09:40:27.979Z,22.53
2018-11-28T09:42:35.988Z,21.90
2018-11-28T09:44:44.076Z,21.43
2018-11-28T09:46:52.238Z,19.23
2018-11-28T09:49:00.432Z,21.63
2018-11-28T09:51:09.256Z,19.90
2018-11-28T09:53:17.286Z,21.97
2018-11-28T09:55:26.716Z,20.80
2018-11-28T09:57:35.572Z,19.83
2018-11-28T09:59:43.640Z,20.80
2018-11-28T10:01:52.309Z,19.67
2018-11-28T10:04:00.366Z,20.70
2018-11-28T10:06:08.583Z,36.80
2018-11-28T10:08:16.553Z,37.10
2018-11-28T10:10:25.056Z,21.63
2018-11-28T10:12:33.059Z,36.37
2018-11-28T10:14:41.917Z,22.27
2018-11-28T10:16:50.675Z,34.27
2018-11-28T10:18:58.849Z,24.00
2018-11-28T10:21:07.029Z,35.45
2018-11-28T10:23:15.238Z,22.70
2018-11-28T10:25:27.503Z,20.17
2018-11-28T10:27:35.457Z,21.40
2018-11-28T10:29:43.484Z,21.50
2018-11-28T10:31:51.581Z,21.70
2018-11-28T10:33:59.587Z,26.60
2018-11-28T10:36:08.833Z,22.42
2018-11-28T10:38:16.800Z,22.57
2018-11-28T10:40:25.888Z,20.70
2018-11-28T10:42:34.108Z,21.00
2018-11-28T10:44:42.112Z,18.63
2018-11-28T10:46:51.357Z,20.67
2018-11-28T10:49:00.179Z,16.70
2018-11-28T10:51:09.265Z,23.73
2018-11-28T10:53:19.109Z,23.07
2018-11-28T10:55:28.842Z,23.40
2018-11-28T10:57:36.783Z,23.30
2018-11-28T10:59:44.900Z,22.10
2018-11-28T11:02:12.165Z,21.40
2018-11-28T11:04:26.206Z,20.80
2018-11-28T11:06:51.758Z,18.60
2018-11-28T11:09:17.228Z,18.73
2018-11-28T11:11:27.505Z,19.97
2018-11-28T11:13:53.230Z,17.87
2018-11-28T11:16:01.649Z,19.57
2018-11-28T11:18:11.842Z,18.00
2018-11-28T11:20:20.524Z,21.23
2018-11-28T11:22:28.583Z,18.27
2018-11-28T11:24:36.765Z,17.95
2018-11-28T11:26:46.116Z,21.03
2018-11-28T11:28:54.146Z,23.47
2018-11-28T11:31:02.869Z,62.57
2018-11-28T11:33:11.180Z,26.93
2018-11-28T11:35:19.566Z,18.73
2018-11-28T11:37:27.875Z,19.57
2018-11-28T11:39:36.531Z,18.83
2018-11-28T11:41:44.503Z,20.00
2018-11-28T11:43:52.825Z,21.17
2018-11-28T11:46:00.911Z,21.20
2018-11-28T11:48:10.931Z,27.13
2018-11-28T11:50:22.472Z,18.53
2018-11-28T11:52:30.567Z,22.03
2018-11-28T11:54:39.376Z,19.67
2018-11-28T11:56:47.422Z,19.67
2018-11-28T11:58:55.796Z,20.33
2018-11-28T12:01:03.929Z,17.67
2018-11-28T12:03:16.946Z,15.40
2018-11-28T12:05:26.018Z,19.40
2018-11-28T12:07:34.210Z,17.40
2018-11-28T12:09:42.913Z,19.90
2018-11-28T12:11:52.072Z,18.50
2018-11-28T12:14:00.312Z,17.87
2018-11-28T12:16:08.546Z,21.30
2018-11-28T12:18:16.829Z,19.12
2018-11-28T12:20:57.553Z,23.57
2018-11-28T12:23:05.830Z,14.97
2018-11-28T12:25:14.964Z,16.97
2018-11-28T12:27:23.093Z,18.07
2018-11-28T12:29:32.049Z,18.60
2018-11-28T12:31:40.584Z,22.80
2018-11-28T12:33:48.801Z,20.27
2018-11-28T12:35:56.904Z,19.87
2018-11-28T12:38:05.304Z,20.80
2018-11-28T12:40:15.498Z,22.10
2018-11-28T12:46:40.487Z,17.10
2018-11-28T12:48:49.666Z,16.37
2018-11-28T12:50:58.029Z,17.87
2018-11-28T12:53:07.726Z,19.73
2018-11-28T12:55:16.210Z,15.50
2018-11-28T12:57:25.037Z,14.70
2018-11-28T12:59:33.114Z,16.52
2018-11-28T13:01:41.827Z,16.30
2018-11-28T13:03:50.048Z,24.27
2018-11-28T13:05:58.248Z,74.83
2018-11-28T13:08:08.712Z,31.00
2018-11-28T13:10:29.852Z,20.90
2018-11-28T13:12:38.073Z,20.13
2018-11-28T13:14:47.644Z,16.97
2018-11-28T13:16:56.245Z,17.00
2018-11-28T13:19:04.857Z,14.10
2018-11-28T13:21:13.142Z,13.68
2018-11-28T13:23:22.825Z,14.70
2018-11-28T13:25:31.454Z,12.50
2018-11-28T13:27:40.788Z,15.63
2018-11-28T13:29:48.904Z,13.07
2018-11-28T13:31:56.919Z,14.57
2018-11-28T13:34:05.118Z,14.23
2018-11-28T13:36:13.381Z,14.90
2018-11-28T13:40:30.131Z,17.90
2018-11-28T13:42:38.109Z,20.97
2018-11-28T13:44:46.570Z,14.17
2018-11-28T13:46:54.840Z,13.43
2018-11-28T13:49:03.470Z,13.68
2018-11-28T13:51:11.609Z,13.07
2018-11-28T13:53:20.386Z,14.57
2018-11-28T13:56:57.478Z,29.70
2018-11-28T13:58:04.513Z,25.67
2018-11-28T14:00:12.863Z,18.37
2018-11-28T14:02:22.015Z,25.73
2018-11-28T14:04:30.138Z,19.57
2018-11-28T14:06:38.428Z,16.83
2018-11-28T14:08:46.567Z,12.60
2018-11-28T14:10:54.547Z,16.80
2018-11-28T14:13:03.281Z,19.20
2018-11-28T14:15:22.894Z,16.07
2018-11-28T14:17:31.102Z,16.13
2018-11-28T14:19:39.128Z,22.40
2018-11-28T14:21:47.419Z,15.95
2018-11-28T14:23:55.642Z,18.77
2018-11-28T14:26:03.642Z,22.10
2018-11-28T14:28:13.318Z,16.67
2018-11-28T14:30:27.883Z,23.57
2018-11-28T14:32:35.866Z,20.43
2018-11-28T14:34:44.356Z,20.97
2018-11-28T14:36:52.477Z,18.50
2018-11-28T14:39:00.458Z,16.50
2018-11-28T14:41:09.039Z,15.77
2018-11-28T14:43:17.130Z,19.33
2018-11-28T14:45:25.782Z,31.00
2018-11-28T14:47:33.841Z,17.80
2018-11-28T14:49:41.943Z,16.70
2018-11-28T14:51:50.456Z,18.43
2018-11-28T14:53:58.909Z,18.37
2018-11-28T14:56:07.603Z,15.07
2018-11-28T14:58:16.432Z,12.80
2018-11-28T15:00:32.543Z,13.40
2018-11-28T15:02:40.624Z,12.83
2018-11-28T15:04:48.684Z,16.27
2018-11-28T15:07:02.214Z,13.30
2018-11-28T15:09:29.427Z,12.33
2018-11-28T15:11:37.400Z,13.73
2018-11-28T15:13:46.069Z,13.17
2018-11-28T15:15:54.282Z,13.37
2018-11-28T15:18:03.568Z,12.13
2018-11-28T15:20:12.579Z,18.77
2018-11-28T15:22:20.673Z,15.93
2018-11-28T15:24:28.826Z,19.43
2018-11-28T15:26:36.838Z,15.13
2018-11-28T15:28:45.027Z,17.00
2018-11-28T15:30:56.635Z,16.53
2018-11-28T15:33:04.716Z,14.35
2018-11-28T15:35:12.939Z,12.97
2018-11-28T15:37:21.554Z,13.07
2018-11-28T15:39:29.827Z,11.75
2018-11-28T15:41:38.710Z,16.63
2018-11-28T15:43:46.749Z,10.33
2018-11-28T15:45:54.726Z,13.67
2018-11-28T15:48:03.863Z,13.88
2018-11-28T15:50:12.359Z,11.50
2018-11-28T15:52:20.527Z,14.10
2018-11-28T15:54:29.106Z,13.87
2018-11-28T15:56:37.060Z,13.00
2018-11-28T15:58:45.897Z,11.47
2018-11-28T16:00:54.219Z,12.60
2018-11-28T16:03:03.532Z,15.80
2018-11-28T16:05:11.648Z,12.97
2018-11-28T16:07:19.626Z,13.70
2018-11-28T16:09:44.853Z,17.90
2018-11-28T16:11:53.121Z,12.77
2018-11-28T16:14:01.261Z,14.27
2018-11-28T16:16:10.283Z,28.23
2018-11-28T16:18:18.311Z,33.70
2018-11-28T16:20:26.304Z,54.97
2018-11-28T16:22:34.353Z,37.60
2018-11-28T16:24:42.427Z,74.40
2018-11-28T16:26:50.522Z,67.33
2018-11-28T16:28:58.699Z,40.20
2018-11-28T16:31:06.755Z,46.00
2018-11-28T16:33:14.922Z,30.40
2018-11-28T16:35:23.449Z,24.03
2018-11-28T16:37:31.578Z,27.53
2018-11-28T16:39:39.592Z,30.43
2018-11-28T16:41:47.969Z,14.60
2018-11-28T16:43:56.085Z,15.77
2018-11-28T16:46:05.311Z,18.43
2018-11-28T16:48:13.331Z,19.20
2018-11-28T16:50:24.796Z,33.70
2018-11-28T16:52:33.721Z,20.82
2018-11-28T16:54:42.780Z,17.83
2018-11-28T16:56:50.975Z,44.75
2018-11-28T16:58:59.973Z,27.97
2018-11-28T17:01:09.000Z,32.25
2018-11-28T17:03:17.437Z,26.63
2018-11-28T17:05:25.940Z,19.03
2018-11-28T17:07:34.123Z,15.17
2018-11-28T17:09:42.331Z,21.73
2018-11-28T17:11:50.320Z,15.17
2018-11-28T17:13:58.522Z,29.70
2018-11-28T17:16:06.703Z,24.03
2018-11-28T17:18:14.939Z,27.67
2018-11-28T17:20:32.592Z,25.07
2018-11-28T17:22:40.938Z,19.03
2018-11-28T17:24:49.057Z,14.00
2018-11-28T17:26:58.032Z,15.53
2018-11-28T17:29:07.866Z,14.20
2018-11-28T17:31:16.009Z,13.90
2018-11-28T17:33:24.142Z,20.30
2018-11-28T17:35:32.884Z,13.50
2018-11-28T17:37:41.379Z,13.33
2018-11-28T17:39:49.441Z,16.80
2018-11-28T17:41:57.538Z,14.93
2018-11-28T17:44:05.591Z,14.17
2018-11-28T17:46:13.849Z,14.70
2018-11-28T17:48:22.703Z,14.60
2018-11-28T17:50:30.993Z,20.30
2018-11-28T17:52:39.958Z,21.30
2018-11-28T17:54:47.966Z,18.13
2018-11-28T17:56:56.217Z,16.47
2018-11-28T17:59:04.229Z,17.17
2018-11-28T18:01:12.524Z,14.60
2018-11-28T18:03:21.451Z,14.98
2018-11-28T18:05:29.626Z,16.17
2018-11-28T18:07:37.918Z,16.00
2018-11-28T18:09:46.433Z,17.02
2018-11-28T18:11:54.576Z,16.70
2018-11-28T18:14:04.405Z,19.10
2018-11-28T18:16:13.046Z,17.53
2018-11-28T18:18:23.176Z,18.40
2018-11-28T18:20:31.375Z,18.40
2018-11-28T18:22:39.367Z,16.67
2018-11-28T18:24:47.422Z,15.90
2018-11-28T18:26:55.766Z,14.43
2018-11-28T18:29:04.150Z,19.00
2018-11-28T18:31:12.467Z,25.17
2018-11-28T18:33:21.455Z,31.40
2018-11-28T18:35:29.947Z,20.20
2018-11-28T18:37:38.760Z,22.03
2018-11-28T18:39:47.085Z,14.50
2018-11-28T18:41:55.382Z,15.17
2018-11-28T18:44:04.163Z,17.00
2018-11-28T18:46:12.284Z,16.50
2018-11-28T18:48:20.596Z,17.40
2018-11-28T18:50:28.907Z,16.33
2018-11-28T18:52:37.059Z,14.67
2018-11-28T18:54:45.279Z,15.05
2018-11-28T18:56:53.666Z,15.73
2018-11-28T18:59:01.811Z,12.03
2018-11-28T19:01:10.676Z,13.67
2018-11-28T19:03:19.561Z,13.27
2018-11-28T19:05:27.949Z,14.93
2018-11-28T19:07:36.447Z,15.60
2018-11-28T19:09:53.659Z,15.20
2018-11-28T19:12:01.788Z,15.43
2018-11-28T19:14:12.289Z,15.50
2018-11-28T19:16:19.137Z,16.63
2018-11-28T19:18:27.803Z,14.43
2018-11-28T19:20:35.984Z,13.63
2018-11-28T19:22:44.537Z,14.40
2018-11-28T19:24:52.786Z,13.90
2018-11-28T19:27:01.364Z,13.40
2018-11-28T19:29:09.664Z,14.77
2018-11-28T19:31:18.600Z,14.07
2018-11-28T19:33:26.772Z,13.20
2018-11-28T19:35:34.879Z,14.93
2018-11-28T19:37:44.027Z,13.50
2018-11-28T19:39:52.216Z,12.97
2018-11-28T19:42:00.532Z,16.47
2018-11-28T19:44:09.427Z,23.00
2018-11-28T19:46:17.736Z,18.12
2018-11-28T19:48:25.807Z,18.07
2018-11-28T19:50:35.829Z,27.70
2018-11-28T19:52:44.306Z,18.27
2018-11-28T19:54:52.584Z,15.57
2018-11-28T19:57:00.818Z,16.07
2018-11-28T19:59:10.330Z,18.00
2018-11-28T20:01:21.570Z,14.53
2018-11-28T20:03:30.510Z,16.33
2018-11-28T20:05:39.069Z,14.67
2018-11-28T20:07:51.862Z,14.95
2018-11-28T20:10:02.296Z,14.97
2018-11-28T20:12:11.386Z,17.33
2018-11-28T20:14:19.605Z,15.00
2018-11-28T20:16:27.791Z,15.63
2018-11-28T20:18:36.027Z,13.23
2018-11-28T20:20:44.276Z,12.33
2018-11-28T20:22:52.615Z,11.75
2018-11-28T20:25:01.256Z,13.33
2018-11-28T20:27:09.608Z,12.53
2018-11-28T20:29:17.912Z,14.93
2018-11-28T20:31:26.334Z,11.87
2018-11-28T20:33:34.539Z,13.83
2018-11-28T20:35:44.420Z,14.40
2018-11-28T20:37:52.665Z,14.63
2018-11-28T20:40:01.215Z,15.77
2018-11-28T20:42:10.212Z,13.47
2018-11-28T20:44:18.382Z,12.83
2018-11-28T20:46:26.754Z,14.17
2018-11-28T20:48:35.337Z,14.53
2018-11-28T20:50:44.390Z,14.93
2018-11-28T20:52:55.318Z,13.53
2018-11-28T20:55:05.214Z,12.06
2018-11-28T20:57:17.356Z,12.60
2018-11-28T20:59:22.277Z,14.53
2018-11-28T21:01:30.613Z,13.48
2018-11-28T21:03:38.799Z,11.80
2018-11-28T21:05:46.867Z,14.93
2018-11-28T21:07:55.176Z,14.13
2018-11-28T21:10:21.675Z,13.64
2018-11-28T21:12:30.055Z,14.70
2018-11-28T21:14:38.444Z,15.67
2018-11-28T21:16:46.610Z,17.43
2018-11-28T21:18:54.982Z,16.33
2018-11-28T21:21:04.780Z,15.90
2018-11-28T21:23:20.678Z,12.30
2018-11-28T21:25:28.914Z,13.80
2018-11-28T21:27:37.320Z,12.63
2018-11-28T21:29:45.483Z,12.30
2018-11-28T21:31:53.560Z,15.63
2018-11-28T21:34:01.748Z,11.30
2018-11-28T21:36:10.495Z,13.03
2018-11-28T21:38:19.463Z,11.63
2018-11-28T21:40:27.744Z,12.87
2018-11-28T21:42:36.783Z,13.70
2018-11-28T21:44:44.957Z,16.93
2018-11-28T21:46:53.229Z,14.87
2018-11-28T21:49:02.239Z,13.27
2018-11-28T21:51:10.237Z,12.30
2018-11-28T21:53:18.370Z,13.50
2018-11-28T21:55:27.645Z,14.83
2018-11-28T21:57:35.682Z,17.60
2018-11-28T21:59:43.828Z,16.43
2018-11-28T22:01:52.074Z,20.73
2018-11-28T22:04:00.223Z,19.23
2018-11-28T22:06:08.466Z,15.80
2018-11-28T22:08:16.709Z,15.53
2018-11-28T22:10:30.637Z,16.40
2018-11-28T22:12:38.814Z,14.90
2018-11-28T22:14:47.260Z,18.40
2018-11-28T22:16:55.331Z,13.80
2018-11-28T22:19:04.639Z,14.67
2018-11-28T22:21:13.240Z,16.70
2018-11-28T22:23:21.311Z,18.20
2018-11-28T22:25:29.734Z,14.10
2018-11-28T22:27:37.868Z,13.67
2018-11-28T22:29:46.210Z,15.43
2018-11-28T22:31:54.604Z,14.47
2018-11-28T22:34:07.595Z,14.33
2018-11-28T22:36:15.957Z,14.83
2018-11-28T22:38:24.406Z,16.57
2018-11-28T22:40:33.508Z,19.47
2018-11-28T22:42:41.690Z,15.75
2018-11-28T22:44:49.868Z,15.07
2018-11-28T22:46:57.942Z,15.57
2018-11-28T22:49:06.138Z,16.00
2018-11-28T22:51:14.116Z,16.65
2018-11-28T22:53:22.147Z,13.40
2018-11-28T22:55:30.207Z,14.60
2018-11-28T22:57:38.767Z,24.63
2018-11-28T22:59:47.288Z,18.33
2018-11-28T23:02:50.605Z,14.87
2018-11-28T23:04:59.845Z,14.35
2018-11-28T23:07:08.968Z,16.70
2018-11-28T23:09:17.298Z,14.07
2018-11-28T23:11:25.754Z,13.57
2018-11-28T23:13:33.837Z,17.12
2018-11-28T23:15:41.859Z,15.10
2018-11-28T23:17:55.015Z,13.00
2018-11-28T23:19:59.528Z,14.97
2018-11-28T23:22:07.508Z,18.20
2018-11-28T23:24:15.718Z,14.53
2018-11-28T23:26:24.157Z,18.50
2018-11-28T23:28:32.710Z,15.03
2018-11-28T23:30:41.081Z,15.50
2018-11-28T23:32:50.785Z,15.47
2018-11-28T23:34:59.206Z,15.57
2018-11-28T23:37:08.457Z,14.47
2018-11-28T23:39:16.662Z,16.77
2018-11-28T23:41:24.732Z,16.73
2018-11-28T23:43:32.747Z,16.32
2018-11-28T23:45:40.848Z,15.57
2018-11-28T23:47:49.122Z,15.30
2018-11-28T23:49:57.333Z,18.27
2018-11-28T23:52:06.234Z,17.80
2018-11-28T23:54:14.206Z,14.03
2018-11-28T23:56:22.501Z,17.07
2018-11-28T23:58:30.746Z,14.57
